createdAt,value
2022-07-30T00:02:36.422Z,63.51
2022-07-30T00:07:39.695Z,63.58
2022-07-30T00:12:43.076Z,63.63
2022-07-30T00:17:46.758Z,63.48
2022-07-30T00:22:52.833Z,63.38
2022-07-30T00:27:56.400Z,63.34
2022-07-30T00:33:00.996Z,63.32
2022-07-30T00:38:04.585Z,63.43
2022-07-30T00:43:08.698Z,63.15
2022-07-30T00:48:13.804Z,63.47
2022-07-30T00:53:17.575Z,63.63
2022-07-30T00:58:21.007Z,63.58
2022-07-30T01:03:25.269Z,63.84
2022-07-30T01:08:28.440Z,64.03
2022-07-30T01:13:31.669Z,63.59
2022-07-30T01:18:55.323Z,63.68
2022-07-30T01:24:27.049Z,63.48
2022-07-30T01:29:32.159Z,63.27
2022-07-30T01:34:36.181Z,63.52
2022-07-30T01:39:41.714Z,63.23
2022-07-30T01:44:47.863Z,63.66
2022-07-30T01:49:53.007Z,63.46
2022-07-30T01:55:05.170Z,63.29
2022-07-30T02:00:20.268Z,63.31
2022-07-30T02:05:27.659Z,63.46
2022-07-30T02:10:52.865Z,63.40
2022-07-30T02:16:14.312Z,63.93
2022-07-30T02:21:19.918Z,63.92
2022-07-30T02:26:26.285Z,63.59
2022-07-30T02:31:32.200Z,63.75
2022-07-30T02:36:37.612Z,63.73
2022-07-30T02:41:49.251Z,63.70
2022-07-30T02:46:54.161Z,63.90
2022-07-30T02:52:22.131Z,64.27
2022-07-30T02:57:29.429Z,64.06
2022-07-30T03:02:43.628Z,64.56
2022-07-30T03:07:47.942Z,64.60
2022-07-30T03:12:55.470Z,64.72
2022-07-30T03:18:00.916Z,65.13
2022-07-30T03:23:04.932Z,65.03
2022-07-30T03:28:09.145Z,64.83
2022-07-30T03:33:13.276Z,64.49
2022-07-30T03:38:23.915Z,64.73
2022-07-30T03:43:33.140Z,64.99
2022-07-30T03:48:38.983Z,65.55
2022-07-30T03:53:43.120Z,65.48
2022-07-30T03:59:05.645Z,65.53
2022-07-30T04:04:11.805Z,65.27
2022-07-30T04:09:16.491Z,65.51
2022-07-30T04:14:29.040Z,65.12
2022-07-30T04:19:45.030Z,64.82
2022-07-30T04:24:49.779Z,65.06
2022-07-30T04:29:54.473Z,64.85
2022-07-30T04:34:57.980Z,64.82
2022-07-30T04:40:47.628Z,64.60
2022-07-30T04:46:03.852Z,64.29
2022-07-30T04:51:10.023Z,64.25
2022-07-30T04:56:14.577Z,63.99
2022-07-30T05:01:24.435Z,64.30
2022-07-30T05:06:44.212Z,63.86
2022-07-30T05:12:13.474Z,63.74
2022-07-30T05:17:17.352Z,63.55
2022-07-30T05:22:20.508Z,63.38
2022-07-30T05:27:23.864Z,63.37
2022-07-30T05:32:31.447Z,63.16
2022-07-30T05:37:44.301Z,63.03
2022-07-30T05:42:47.946Z,62.90
2022-07-30T05:47:51.251Z,62.83
2022-07-30T05:53:00.327Z,62.80
2022-07-30T05:58:23.410Z,62.69
2022-07-30T06:03:26.685Z,62.46
2022-07-30T06:08:57.049Z,62.13
2022-07-30T06:14:01.404Z,61.83
2022-07-30T06:19:19.760Z,61.20
2022-07-30T06:24:29.020Z,61.27
2022-07-30T06:29:54.979Z,61.20
2022-07-30T06:35:04.325Z,61.17
2022-07-30T06:40:09.608Z,61.36
2022-07-30T06:45:45.061Z,61.37
2022-07-30T06:51:21.033Z,60.97
2022-07-30T06:56:26.451Z,60.64
2022-07-30T07:01:39.577Z,60.45
2022-07-30T07:06:43.389Z,60.70
2022-07-30T07:12:00.677Z,60.62
2022-07-30T07:17:10.325Z,60.70
2022-07-30T07:22:49.428Z,60.57
2022-07-30T07:28:10.883Z,60.40
2022-07-30T07:33:17.653Z,60.07
2022-07-30T07:38:21.966Z,59.75
2022-07-30T07:43:26.839Z,59.32
2022-07-30T07:48:32.858Z,59.15
2022-07-30T07:54:20.319Z,59.03
2022-07-30T07:59:39.983Z,58.37
2022-07-30T08:05:06.068Z,57.93
2022-07-30T08:10:32.482Z,57.89
2022-07-30T08:16:06.664Z,58.69
2022-07-30T08:21:28.822Z,57.97
2022-07-30T08:26:32.230Z,57.34
2022-07-30T08:31:37.521Z,57.60
2022-07-30T08:36:41.951Z,58.22
2022-07-30T08:41:45.447Z,58.74
2022-07-30T08:46:53.513Z,59.53
2022-07-30T08:52:20.290Z,60.38
2022-07-30T08:57:35.684Z,60.79
2022-07-30T09:02:39.321Z,61.10
2022-07-30T09:07:43.917Z,61.27
2022-07-30T09:12:52.329Z,61.26
2022-07-30T09:18:00.817Z,60.85
2022-07-30T09:23:06.513Z,61.21
2022-07-30T09:28:30.965Z,62.22
2022-07-30T09:33:52.698Z,63.17
2022-07-30T09:39:38.078Z,63.97
2022-07-30T09:45:09.012Z,65.21
2022-07-30T09:50:17.950Z,66.31
2022-07-30T09:55:41.360Z,68.07
2022-07-30T10:00:58.224Z,69.19
2022-07-30T10:06:34.784Z,71.17
2022-07-30T10:11:42.926Z,71.96
2022-07-30T10:16:49.393Z,72.74
2022-07-30T10:21:58.347Z,73.20
2022-07-30T10:27:41.378Z,74.41
2022-07-30T10:33:00.115Z,75.01
2022-07-30T10:38:08.754Z,75.83
2022-07-30T10:43:32.854Z,76.67
2022-07-30T10:48:36.295Z,76.98
2022-07-30T10:53:42.936Z,77.88
2022-07-30T10:59:09.437Z,77.25
2022-07-30T11:04:33.963Z,77.00
2022-07-30T11:09:42.818Z,77.25
2022-07-30T11:14:46.616Z,77.26
2022-07-30T11:20:05.302Z,77.11
2022-07-30T11:25:12.641Z,77.50
2022-07-30T11:30:17.148Z,77.36
2022-07-30T11:35:34.939Z,77.32
2022-07-30T11:41:01.350Z,78.62
2022-07-30T11:46:28.949Z,79.78
2022-07-30T11:51:44.996Z,80.30
2022-07-30T11:56:54.359Z,80.60
2022-07-30T12:02:01.114Z,80.24
2022-07-30T12:07:04.719Z,80.49
2022-07-30T12:12:24.423Z,80.96
2022-07-30T12:17:44.878Z,81.12
2022-07-30T12:22:48.234Z,81.92
2022-07-30T12:27:52.387Z,82.75
2022-07-30T12:32:55.682Z,83.44
2022-07-30T12:38:04.637Z,83.36
2022-07-30T12:43:13.656Z,83.59
2022-07-30T12:48:17.299Z,83.62
2022-07-30T12:53:29.878Z,83.51
2022-07-30T12:58:38.343Z,83.94
2022-07-30T13:03:42.363Z,84.62
2022-07-30T13:08:55.052Z,85.34
2022-07-30T13:13:58.341Z,85.66
2022-07-30T13:19:03.353Z,85.84
2022-07-30T13:24:07.750Z,86.33
2022-07-30T13:29:13.857Z,86.73
2022-07-30T13:34:17.340Z,87.39
2022-07-30T13:39:20.716Z,87.36
2022-07-30T13:44:24.134Z,87.55
2022-07-30T13:49:27.651Z,87.37
2022-07-30T13:54:57.900Z,87.16
2022-07-30T14:00:11.434Z,87.59
2022-07-30T14:05:15.412Z,88.21
2022-07-30T14:10:28.525Z,88.05
2022-07-30T14:15:34.775Z,87.61
2022-07-30T14:20:39.703Z,87.61
2022-07-30T14:25:45.339Z,87.86
2022-07-30T14:30:49.460Z,88.17
2022-07-30T14:35:57.553Z,88.71
2022-07-30T14:41:05.854Z,89.01
2022-07-30T14:46:09.388Z,88.99
2022-07-30T14:51:17.932Z,89.45
2022-07-30T14:56:26.545Z,90.20
2022-07-30T15:01:30.270Z,90.81
2022-07-30T15:06:34.056Z,91.09
2022-07-30T15:12:04.325Z,91.03
2022-07-30T15:17:04.226Z,90.88
2022-07-30T15:22:08.141Z,90.88
2022-07-30T15:27:14.228Z,90.86
2022-07-30T15:32:19.643Z,90.91
2022-07-30T15:37:23.019Z,91.16
2022-07-30T15:42:31.385Z,91.10
2022-07-30T15:47:36.525Z,91.29
2022-07-30T15:52:39.886Z,91.52
2022-07-30T15:57:43.582Z,91.61
2022-07-30T16:02:46.904Z,91.59
